• Join FlightAware (Why Join?)
  • Login
  • US Flag 
Rudolph Flight #1: Arrived! 
11:19PM EST


 

Airport Tracker/Info


-or-


 

Live Flight TrackerFlight Track Log ✈ N555LG ✈ 28-Jun-2013 ✈ KICT - KIXD

Flight Track Log - Related Links

Times and Time Zones

All times are in EDT time to prevent confusion due to time zone crossing. See the N555LG flight status page for this flight to view local times or setup timezone preferences in your user account.

Time Position Orientation Groundspeed Altitude Reporting Facility
EDT Latitude Longitude Course Direction KTS MPH feet Rate Location/Type
01:03PM 37.6606 -97.4194 18° North 162 186 2,100  Level Kansas City Center
01:04PM 37.7214 -97.3942 18° North 191 220 5,000 1,620 Climbing Kansas City Center
01:05PM 37.7683 -97.3728 20° North 208 239 5,600 1,680 Climbing Kansas City Center
01:06PM 37.8192 -97.3103 44° Northeast 256 295 8,300 2,820 Climbing Kansas City Center
01:07PM 37.8547 -97.2247 62° Northeast 272 313 11,500 2,880 Climbing Kansas City Center
01:08PM 37.8964 -97.1181 64° Northeast 285 328 14,300 1,680 Climbing Kansas City Center
01:09PM 37.9367 -97.0203 62° Northeast 313 360 15,000 300 Climbing Kansas City Center
01:10PM 37.9803 -96.9114 63° Northeast 343 395 15,000  Level Kansas City Center
01:11PM 38.0247 -96.8047 62° Northeast 343 395 15,000  Level Kansas City Center
01:12PM 38.0681 -96.6950 63° Northeast 347 399 15,000  Level Kansas City Center
01:13PM 38.1125 -96.5867 62° Northeast 347 399 15,000  Level Kansas City Center
01:14PM 38.1681 -96.4592 61° Northeast 346 398 15,100  Climbing Kansas City Center
01:15PM 38.2114 -96.3614 61° Northeast 344 396 15,100  Level Kansas City Center
01:16PM 38.2619 -96.2386 62° Northeast 350 403 15,100  Level Kansas City Center
01:17PM 38.3064 -96.1369 61° Northeast 345 397 15,100  Level Kansas City Center
01:18PM 38.3581 -96.0178 61° Northeast 345 397 15,100  Level Kansas City Center
01:19PM 38.4006 -95.9150 62° Northeast 344 396 15,100 -480 Level Kansas City Center
01:20PM 38.4514 -95.7981 61° Northeast 338 389 14,200 -1,140 Descending Kansas City Center
01:21PM 38.4928 -95.7044 61° Northeast 319 367 12,800 -1,440 Descending Kansas City Center
01:22PM 38.5336 -95.6031 63° Northeast 290 334 11,200 -1,560 Descending Kansas City Center
01:23PM 38.5711 -95.5164 61° Northeast 292 336 9,600 -1,860 Descending Kansas City Center
01:24PM 38.6161 -95.4097 62° Northeast 305 351 7,400 -1,920 Descending Kansas City Center
01:25PM 38.6508 -95.3244 62° Northeast 285 328 5,700 -1,620 Descending Kansas City Center
01:26PM 38.6908 -95.2331 61° Northeast 266 306 4,100 -780 Descending Kansas City Center
01:27PM 38.7194 -95.1586 64° Northeast 249 287 4,100 -480 Level Kansas City Center
01:28PM 38.7339 -95.0661 79° East 239 275 3,200 -540 Descending Kansas City Center
01:30PM 38.7467 -94.9939 77° East 222 255 3,000 -300 Descending Kansas City Center
01:31PM 38.7567 -94.9319 78° East 191 220 2,700 -660 Descending Kansas City Center
01:32PM 38.7792 -94.8919 54° Northeast 131 151 1,700 -780 Descending Kansas City Center
01:33PM 38.8075 -94.8906 North 110 127 1,200 -300 Descending Kansas City Center
01:34PM 38.8406 -94.8917 359° North 109 125 1,100 -120 Descending Kansas City Center